createdAt,value
2022-08-05T00:02:14.265Z,29
2022-08-05T00:08:01.393Z,29
2022-08-05T00:13:19.991Z,29
2022-08-05T00:18:56.290Z,29
2022-08-05T00:24:24.475Z,28.9
2022-08-05T00:29:50.460Z,28.9
2022-08-05T00:35:09.911Z,28.9
2022-08-05T00:40:29.744Z,28.9
2022-08-05T00:45:48.310Z,28.9
2022-08-05T00:51:52.350Z,28.9
2022-08-05T00:57:11.377Z,28.9
2022-08-05T01:02:30.920Z,29
2022-08-05T01:08:44.399Z,29
2022-08-05T01:14:09.446Z,29
2022-08-05T01:20:01.247Z,29
2022-08-05T01:25:21.648Z,29
2022-08-05T01:30:53.989Z,29
2022-08-05T01:36:16.499Z,29
2022-08-05T01:41:44.617Z,29
2022-08-05T01:47:05.338Z,29
2022-08-05T01:52:27.325Z,29
2022-08-05T01:58:15.347Z,29
2022-08-05T02:03:59.027Z,29
2022-08-05T02:09:21.103Z,28.9
2022-08-05T02:14:43.393Z,28.9
2022-08-05T02:20:06.023Z,28.9
2022-08-05T02:25:26.125Z,28.9
2022-08-05T02:31:13.116Z,28.9
2022-08-05T02:36:33.169Z,28.9
2022-08-05T02:42:01.679Z,28.9
2022-08-05T02:47:20.335Z,28.9
2022-08-05T02:52:41.269Z,28.9
2022-08-05T02:58:13.375Z,28.9
2022-08-05T03:04:02.488Z,28.9
2022-08-05T03:09:43.380Z,28.9
2022-08-05T03:15:12.669Z,28.9
2022-08-05T03:20:30.886Z,28.9
2022-08-05T03:26:32.191Z,28.9
2022-08-05T03:32:00.762Z,28.9
2022-08-05T03:37:19.326Z,28.9
2022-08-05T03:42:51.588Z,28.9
2022-08-05T03:48:11.259Z,28.8
2022-08-05T03:56:10.952Z,28.9
2022-08-05T04:01:48.739Z,28.9
2022-08-05T04:07:08.190Z,28.9
2022-08-05T04:12:26.959Z,28.9
2022-08-05T04:18:00.004Z,28.9
2022-08-05T04:24:06.971Z,28.9
2022-08-05T04:29:37.246Z,28.9
2022-08-05T04:34:58.135Z,28.9
2022-08-05T04:40:19.811Z,28.9
2022-08-05T04:45:54.839Z,28.8
2022-08-05T04:51:14.438Z,28.7
2022-08-05T04:56:37.494Z,28.8
2022-08-05T05:02:41.198Z,28.8
2022-08-05T05:08:02.736Z,28.9
2022-08-05T05:13:21.644Z,28.9
2022-08-05T05:18:45.383Z,28.8
2022-08-05T05:25:00.419Z,28.9
2022-08-05T05:30:34.207Z,28.9
2022-08-05T05:35:53.437Z,28.9
2022-08-05T05:41:16.542Z,28.9
2022-08-05T05:46:40.605Z,28.9
2022-08-05T05:52:07.774Z,28.9
2022-08-05T05:57:52.069Z,28.9
2022-08-05T06:03:54.341Z,28.9
2022-08-05T06:09:36.374Z,28.9
2022-08-05T06:16:32.984Z,28.9
2022-08-05T06:21:55.660Z,28.9
2022-08-05T06:26:58.227Z,28.9
2022-08-05T06:32:29.011Z,28.9
2022-08-05T06:38:00.211Z,28.9
2022-08-05T06:44:00.867Z,28.9
2022-08-05T06:49:21.330Z,28.9
2022-08-05T06:55:19.588Z,28.9
2022-08-05T07:00:41.790Z,28.9
2022-08-05T07:06:00.374Z,29
2022-08-05T07:11:39.686Z,29
2022-08-05T07:18:09.695Z,29
2022-08-05T07:23:49.262Z,29
2022-08-05T07:29:10.510Z,29
2022-08-05T07:34:33.514Z,29
2022-08-05T07:40:32.733Z,29
2022-08-05T07:45:58.692Z,29.1
2022-08-05T07:51:36.460Z,29.1
2022-08-05T07:58:02.582Z,29.1
2022-08-05T08:03:21.915Z,29.1
2022-08-05T08:08:40.397Z,29.1
2022-08-05T08:14:01.375Z,29.1
2022-08-05T08:20:59.764Z,29.1
2022-08-05T08:26:30.536Z,29.1
2022-08-05T08:31:34.163Z,29.2
2022-08-05T08:37:03.512Z,29.2
2022-08-05T08:42:52.692Z,29.2
2022-08-05T08:49:03.229Z,29.2
2022-08-05T08:56:06.136Z,29.2
2022-08-05T09:01:25.099Z,29.2
2022-08-05T09:06:43.353Z,29.2
2022-08-05T09:12:27.142Z,29.2
2022-08-05T09:17:50.001Z,29.3
2022-08-05T09:23:21.605Z,29.3
2022-08-05T09:28:41.721Z,29.3
2022-08-05T09:34:00.465Z,29.3
2022-08-05T09:39:22.747Z,29.3
2022-08-05T09:46:05.404Z,29.3
2022-08-05T09:51:36.756Z,29.3
2022-08-05T09:56:54.875Z,29.3
2022-08-05T10:02:21.211Z,29.4
2022-08-05T10:08:38.105Z,29.4
2022-08-05T10:14:00.432Z,29.4
2022-08-05T10:20:02.782Z,29.4
2022-08-05T10:25:28.922Z,29.4
2022-08-05T10:33:02.379Z,29.4
2022-08-05T10:38:26.632Z,29.4
2022-08-05T10:43:48.988Z,29.4
2022-08-05T10:49:16.723Z,29.4
2022-08-05T10:54:57.252Z,29.4
2022-08-05T11:00:22.793Z,29.4
2022-08-05T11:05:43.656Z,29.4
2022-08-05T11:11:16.947Z,29.5
2022-08-05T11:17:01.160Z,29.5
2022-08-05T11:23:25.401Z,29.5
2022-08-05T11:29:23.181Z,29.5
2022-08-05T11:34:55.242Z,29.5
2022-08-05T11:40:18.868Z,29.5
2022-08-05T11:46:33.169Z,29.5
2022-08-05T11:51:53.312Z,29.5
2022-08-05T11:57:27.028Z,29.5
2022-08-05T12:02:48.645Z,29.5
2022-08-05T12:08:18.355Z,29.5
2022-08-05T12:13:50.055Z,29.5
2022-08-05T12:19:08.887Z,29.5
2022-08-05T12:25:43.020Z,29.5
2022-08-05T12:31:03.009Z,29.5
2022-08-05T12:36:25.760Z,29.5
2022-08-05T12:41:44.320Z,29.6
2022-08-05T12:47:02.758Z,29.6
2022-08-05T12:52:32.508Z,29.6
2022-08-05T12:58:51.130Z,29.6
2022-08-05T13:04:21.834Z,29.6
2022-08-05T13:09:50.614Z,29.6
2022-08-05T13:15:36.253Z,29.6
2022-08-05T13:21:09.919Z,29.6
2022-08-05T13:26:31.766Z,29.6
2022-08-05T13:32:05.539Z,29.6
2022-08-05T13:37:35.423Z,29.6
2022-08-05T13:42:55.972Z,29.6
2022-08-05T13:49:00.777Z,29.6
2022-08-05T13:54:25.716Z,29.6
2022-08-05T14:00:01.957Z,29.6
2022-08-05T14:06:26.560Z,29.6
2022-08-05T14:12:17.900Z,29.6
2022-08-05T14:17:59.514Z,29.6
2022-08-05T14:23:27.428Z,29.6
2022-08-05T14:28:54.896Z,29.6
2022-08-05T14:34:13.686Z,29.7
2022-08-05T14:39:58.958Z,29.7
2022-08-05T14:45:17.387Z,29.7
2022-08-05T14:50:40.982Z,29.7
2022-08-05T14:56:00.619Z,29.8
2022-08-05T15:01:49.269Z,29.8
2022-08-05T15:07:08.196Z,29.8
2022-08-05T15:12:33.636Z,29.8
2022-08-05T15:18:21.770Z,29.8
2022-08-05T15:23:40.827Z,29.8
2022-08-05T15:28:58.980Z,29.8
2022-08-05T15:34:34.052Z,29.8
2022-08-05T15:41:24.080Z,29.8
2022-08-05T15:47:17.020Z,29.8
2022-08-05T15:52:55.651Z,29.8
2022-08-05T15:58:23.477Z,29.8
2022-08-05T16:03:42.162Z,29.8
2022-08-05T16:09:00.415Z,29.8
2022-08-05T16:14:20.370Z,29.8
2022-08-05T16:20:12.215Z,29.7
2022-08-05T16:25:34.252Z,29.8
2022-08-05T16:30:54.145Z,29.7
2022-08-05T16:36:12.907Z,29.7
2022-08-05T16:42:18.646Z,29.7
2022-08-05T16:47:58.574Z,29.7
2022-08-05T16:54:03.822Z,29.8
2022-08-05T17:00:07.470Z,29.7
2022-08-05T17:05:28.719Z,29.7
2022-08-05T17:10:48.856Z,29.7
2022-08-05T17:16:33.228Z,29.7
2022-08-05T17:21:55.556Z,29.7
2022-08-05T17:27:16.724Z,29.7
2022-08-05T17:32:35.622Z,29.7
2022-08-05T17:38:04.832Z,29.7
2022-08-05T17:43:50.467Z,29.7
2022-08-05T17:48:58.391Z,29.7
2022-08-05T17:54:23.731Z,29.7
2022-08-05T17:59:42.982Z,29.7
2022-08-05T18:05:21.431Z,29.7
2022-08-05T18:10:39.878Z,29.6
2022-08-05T18:15:59.813Z,29.6
2022-08-05T18:21:28.093Z,29.6
2022-08-05T18:27:37.747Z,29.6
2022-08-05T18:33:01.519Z,29.6
2022-08-05T18:38:26.617Z,29.5
2022-08-05T18:43:49.628Z,29.5
2022-08-05T18:49:11.373Z,29.5
2022-08-05T18:54:32.124Z,29.6
2022-08-05T19:00:06.584Z,29.6
2022-08-05T19:06:21.802Z,29.6
2022-08-05T19:12:02.794Z,29.6
2022-08-05T19:17:22.347Z,29.6
2022-08-05T19:24:12.228Z,29.6
2022-08-05T19:29:36.705Z,29.6
2022-08-05T19:34:58.124Z,29.6
2022-08-05T19:40:02.234Z,29.6
2022-08-05T19:45:36.283Z,29.5
2022-08-05T19:50:55.388Z,29.5
2022-08-05T19:56:34.618Z,29.5
2022-08-05T20:01:54.031Z,29.5
2022-08-05T20:07:13.815Z,29.4
2022-08-05T20:12:32.203Z,29.4
2022-08-05T20:17:52.394Z,29.3
2022-08-05T20:23:13.619Z,29.4
2022-08-05T20:28:36.220Z,29.4
2022-08-05T20:33:54.427Z,29.4
2022-08-05T20:39:17.025Z,29.4
2022-08-05T20:44:38.653Z,29.5
2022-08-05T20:49:59.210Z,29.5
2022-08-05T20:56:09.617Z,29.5
2022-08-05T21:01:13.676Z,29.5
2022-08-05T21:06:33.398Z,29.5
2022-08-05T21:12:11.921Z,29.5
2022-08-05T21:17:36.143Z,29.5
2022-08-05T21:22:55.246Z,29.5
2022-08-05T21:28:23.551Z,29.5
2022-08-05T21:33:50.041Z,29.5
2022-08-05T21:39:26.395Z,29.6
2022-08-05T21:44:47.335Z,29.6
2022-08-05T21:50:07.566Z,29.6
2022-08-05T21:56:09.993Z,29.6
2022-08-05T22:01:36.118Z,29.6
2022-08-05T22:06:57.395Z,29.6
2022-08-05T22:12:17.887Z,29.6
2022-08-05T22:18:00.353Z,29.6
2022-08-05T22:23:21.903Z,29.6
2022-08-05T22:28:40.579Z,29.6
2022-08-05T22:34:02.173Z,29.6
2022-08-05T22:39:22.733Z,29.6
2022-08-05T22:44:53.699Z,29.6
2022-08-05T22:50:26.653Z,29.6
2022-08-05T22:55:59.236Z,29.6
2022-08-05T23:01:20.705Z,29.6
2022-08-05T23:06:39.125Z,29.6
2022-08-05T23:12:00.498Z,29.6
2022-08-05T23:17:32.996Z,29.6
2022-08-05T23:23:22.337Z,29.6
2022-08-05T23:28:43.385Z,29.7
2022-08-05T23:34:06.721Z,29.7
2022-08-05T23:39:54.902Z,29.7
2022-08-05T23:45:15.976Z,29.7
2022-08-05T23:50:34.259Z,29.7
2022-08-05T23:55:53.069Z,29.7
